sensor_id;sensor_type;location;lat;lon;timestamp;P1;P2;P0
77239;PMS7003;66258;53.170;-2.240;2023-04-01T00:01:52;3801.00;3801.00;3801.00
77239;PMS7003;66258;53.170;-2.240;2023-04-01T00:04:18;3752.50;3752.50;3752.50
77239;PMS7003;66258;53.170;-2.240;2023-04-01T00:06:45;3831.75;3831.75;3831.75
77239;PMS7003;66258;53.170;-2.240;2023-04-01T00:09:12;3824.50;3824.50;3824.50
77239;PMS7003;66258;53.170;-2.240;2023-04-01T00:11:39;3834.33;3834.33;3834.33
77239;PMS7003;66258;53.170;-2.240;2023-04-01T00:14:06;3849.00;3849.00;3849.00
77239;PMS7003;66258;53.170;-2.240;2023-04-01T00:16:33;3866.75;3866.75;3866.75
77239;PMS7003;66258;53.170;-2.240;2023-04-01T00:19:01;3794.33;3794.33;3794.33
77239;PMS7003;66258;53.170;-2.240;2023-04-01T00:21:28;3817.40;3817.40;3817.40
77239;PMS7003;66258;53.170;-2.240;2023-04-01T00:23:55;3836.40;3836.40;3836.40
77239;PMS7003;66258;53.170;-2.240;2023-04-01T00:26:22;3836.60;3836.60;3836.60
77239;PMS7003;66258;53.170;-2.240;2023-04-01T00:28:49;3819.20;3819.20;3819.20
77239;PMS7003;66258;53.170;-2.240;2023-04-01T00:31:16;3822.80;3822.80;3822.80
77239;PMS7003;66258;53.170;-2.240;2023-04-01T00:33:43;3866.80;3866.80;3866.80
77239;PMS7003;66258;53.170;-2.240;2023-04-01T00:36:12;3828.20;3828.20;3828.20
77239;PMS7003;66258;53.170;-2.240;2023-04-01T00:38:40;3866.00;3866.00;3866.00
77239;PMS7003;66258;53.170;-2.240;2023-04-01T00:41:08;3873.20;3873.20;3873.20
77239;PMS7003;66258;53.170;-2.240;2023-04-01T00:43:36;3853.25;3853.25;3853.25
77239;PMS7003;66258;53.170;-2.240;2023-04-01T00:46:02;3848.75;3848.75;3848.75
77239;PMS7003;66258;53.170;-2.240;2023-04-01T00:48:30;3838.00;3838.00;3838.00
77239;PMS7003;66258;53.170;-2.240;2023-04-01T00:51:01;3835.50;3835.50;3835.50
77239;PMS7003;66258;53.170;-2.240;2023-04-01T00:53:32;3840.00;3840.00;3840.00
77239;PMS7003;66258;53.170;-2.240;2023-04-01T00:56:03;3835.50;3835.50;3835.50
77239;PMS7003;66258;53.170;-2.240;2023-04-01T00:58:34;3866.50;3866.50;3866.50
77239;PMS7003;66258;53.170;-2.240;2023-04-01T01:01:04;3860.00;3860.00;3860.00
77239;PMS7003;66258;53.170;-2.240;2023-04-01T01:03:35;3853.25;3853.25;3853.25
77239;PMS7003;66258;53.170;-2.240;2023-04-01T01:06:08;3880.40;3880.40;3880.40
77239;PMS7003;66258;53.170;-2.240;2023-04-01T01:08:47;3827.00;;3827.00
77239;PMS7003;66258;53.170;-2.240;2023-04-01T01:11:29;3846.50;3846.50;3846.50
77239;PMS7003;66258;53.170;-2.240;2023-04-01T01:14:11;3851.00;3851.00;3851.00
77239;PMS7003;66258;53.170;-2.240;2023-04-01T01:16:54;3871.40;3871.40;3871.40
77239;PMS7003;66258;53.170;-2.240;2023-04-01T01:19:39;3854.67;3854.67;3854.67
77239;PMS7003;66258;53.170;-2.240;2023-04-01T01:22:23;3877.25;3877.25;3877.25
77239;PMS7003;66258;53.170;-2.240;2023-04-01T01:28:01;3875.00;3875.00;3875.00
77239;PMS7003;66258;53.170;-2.240;2023-04-01T01:30:50;3884.00;3884.00;3884.00
77239;PMS7003;66258;53.170;-2.240;2023-04-01T01:36:18;3876.80;3876.80;3876.80
77239;PMS7003;66258;53.170;-2.240;2023-04-01T01:38:47;3866.75;3866.75;3866.75
77239;PMS7003;66258;53.170;-2.240;2023-04-01T01:41:16;3906.50;3906.50;3906.50
77239;PMS7003;66258;53.170;-2.240;2023-04-01T01:43:46;3893.00;3893.00;3893.00
77239;PMS7003;66258;53.170;-2.240;2023-04-01T01:46:22;3875.00;3875.00;3875.00
77239;PMS7003;66258;53.170;-2.240;2023-04-01T01:48:51;3829.60;3829.60;3829.60
77239;PMS7003;66258;53.170;-2.240;2023-04-01T01:51:22;3896.60;3896.60;3896.60
77239;PMS7003;66258;53.170;-2.240;2023-04-01T01:53:50;3818.25;3818.25;3818.25
77239;PMS7003;66258;53.170;-2.240;2023-04-01T01:56:17;3891.20;3891.20;3891.20
77239;PMS7003;66258;53.170;-2.240;2023-04-01T01:58:48;3851.00;3851.00;3851.00
77239;PMS7003;66258;53.170;-2.240;2023-04-01T02:01:19;3828.20;3828.20;3828.20
77239;PMS7003;66258;53.170;-2.240;2023-04-01T02:03:49;3896.60;3896.60;3896.60
77239;PMS7003;66258;53.170;-2.240;2023-04-01T02:06:18;3849.20;3849.20;3849.20
77239;PMS7003;66258;53.170;-2.240;2023-04-01T02:08:50;3916.40;3916.40;3916.40
77239;PMS7003;66258;53.170;-2.240;2023-04-01T02:11:22;3857.60;3857.60;3857.60
77239;PMS7003;66258;53.170;-2.240;2023-04-01T02:13:54;3837.75;3837.75;3837.75
77239;PMS7003;66258;53.170;-2.240;2023-04-01T02:16:26;3859.60;3859.60;3859.60
77239;PMS7003;66258;53.170;-2.240;2023-04-01T02:18:57;3893.00;3893.00;3893.00
77239;PMS7003;66258;53.170;-2.240;2023-04-01T02:21:27;3856.00;3856.00;3856.00
77239;PMS7003;66258;53.170;-2.240;2023-04-01T02:23:58;3888.50;3888.50;3888.50
77239;PMS7003;66258;53.170;-2.240;2023-04-01T02:26:29;3856.00;3856.00;3856.00
77239;PMS7003;66258;53.170;-2.240;2023-04-01T02:28:57;3890.75;3890.75;3890.75
77239;PMS7003;66258;53.170;-2.240;2023-04-01T02:31:27;3912.80;3912.80;3912.80
77239;PMS7003;66258;53.170;-2.240;2023-04-01T02:33:54;3911.00;3911.00;3911.00
77239;PMS7003;66258;53.170;-2.240;2023-04-01T02:36:21;3841.60;3841.60;3841.60
77239;PMS7003;66258;53.170;-2.240;2023-04-01T02:38:48;3831.60;3831.60;3831.60
77239;PMS7003;66258;53.170;-2.240;2023-04-01T02:41:18;3852.20;3852.20;3852.20
77239;PMS7003;66258;53.170;-2.240;2023-04-01T02:43:45;3857.80;3857.80;3857.80
77239;PMS7003;66258;53.170;-2.240;2023-04-01T02:46:11;3841.60;3841.60;3841.60
77239;PMS7003;66258;53.170;-2.240;2023-04-01T02:48:38;3899.75;3899.75;3899.75
77239;PMS7003;66258;53.170;-2.240;2023-04-01T02:51:06;3842.50;3842.50;3842.50
77239;PMS7003;66258;53.170;-2.240;2023-04-01T02:53:34;3927.00;3927.00;3927.00
77239;PMS7003;66258;53.170;-2.240;2023-04-01T02:56:01;3884.60;3884.60;3884.60
77239;PMS7003;66258;53.170;-2.240;2023-04-01T02:58:29;3911.00;3911.00;3911.00
77239;PMS7003;66258;53.170;-2.240;2023-04-01T03:00:56;3905.60;3905.60;3905.60
77239;PMS7003;66258;53.170;-2.240;2023-04-01T03:03:22;3886.25;3886.25;3886.25
77239;PMS7003;66258;53.170;-2.240;2023-04-01T03:05:49;3916.40;3916.40;3916.40
77239;PMS7003;66258;53.170;-2.240;2023-04-01T03:08:16;3873.25;3873.25;3873.25
77239;PMS7003;66258;53.170;-2.240;2023-04-01T03:10:43;3884.00;3884.00;3884.00
77239;PMS7003;66258;53.170;-2.240;2023-04-01T03:13:09;3893.00;3893.00;3893.00
77239;PMS7003;66258;53.170;-2.240;2023-04-01T03:15:37;3900.20;3900.20;3900.20
77239;PMS7003;66258;53.170;-2.240;2023-04-01T03:18:04;3889.40;3889.40;3889.40
77239;PMS7003;66258;53.170;-2.240;2023-04-01T03:20:32;3941.80;3941.80;3941.80
77239;PMS7003;66258;53.170;-2.240;2023-04-01T03:22:59;3898.40;3898.40;3898.40
77239;PMS7003;66258;53.170;-2.240;2023-04-01T03:25:26;3913.50;3913.50;3913.50
77239;PMS7003;66258;53.170;-2.240;2023-04-01T03:27:52;3878.60;3878.60;3878.60
77239;PMS7003;66258;53.170;-2.240;2023-04-01T03:30:20;3909.60;3909.60;3909.60
77239;PMS7003;66258;53.170;-2.240;2023-04-01T03:32:48;3915.50;3915.50;3915.50
77239;PMS7003;66258;53.170;-2.240;2023-04-01T03:35:15;3863.20;3863.20;3863.20
77239;PMS7003;66258;53.170;-2.240;2023-04-01T03:37:42;3936.00;3936.00;3936.00
77239;PMS7003;66258;53.170;-2.240;2023-04-01T03:40:10;3866.60;3866.60;3866.60
77239;PMS7003;66258;53.170;-2.240;2023-04-01T03:42:37;3942.75;3942.75;3942.75
77239;PMS7003;66258;53.170;-2.240;2023-04-01T03:45:04;3836.80;3836.80;3836.80
77239;PMS7003;66258;53.170;-2.240;2023-04-01T03:47:32;3917.75;3917.75;3917.75
77239;PMS7003;66258;53.170;-2.240;2023-04-01T03:50:01;3884.00;3884.00;3884.00
77239;PMS7003;66258;53.170;-2.240;2023-04-01T03:52:27;3920.00;3920.00;3920.00
77239;PMS7003;66258;53.170;-2.240;2023-04-01T03:54:54;3916.40;3916.40;3916.40
77239;PMS7003;66258;53.170;-2.240;2023-04-01T03:57:21;3943.00;3943.00;3943.00
77239;PMS7003;66258;53.170;-2.240;2023-04-01T03:59:48;3766.25;3766.25;3760.00
77239;PMS7003;66258;53.170;-2.240;2023-04-01T04:02:14;3877.25;3877.25;3877.25
77239;PMS7003;66258;53.170;-2.240;2023-04-01T04:04:41;3902.00;3902.00;3902.00
77239;PMS7003;66258;53.170;-2.240;2023-04-01T04:07:10;3934.60;3934.60;3934.60
77239;PMS7003;66258;53.170;-2.240;2023-04-01T04:09:37;3920.20;3920.20;3920.20
77239;PMS7003;66258;53.170;-2.240;2023-04-01T04:12:03;3891.20;3891.20;3891.20
77239;PMS7003;66258;53.170;-2.240;2023-04-01T04:14:31;3934.60;3934.60;3934.60
77239;PMS7003;66258;53.170;-2.240;2023-04-01T04:16:57;3690.60;3690.60;3675.60
77239;PMS7003;66258;53.170;-2.240;2023-04-01T04:19:24;3916.40;3916.40;3916.40
77239;PMS7003;66258;53.170;-2.240;2023-04-01T04:21:53;3938.40;3938.40;3938.40
77239;PMS7003;66258;53.170;-2.240;2023-04-01T04:24:21;3904.25;3904.25;3904.25
77239;PMS7003;66258;53.170;-2.240;2023-04-01T04:26:47;3918.40;3918.40;3918.40
77239;PMS7003;66258;53.170;-2.240;2023-04-01T04:29:14;3893.00;3893.00;3893.00
77239;PMS7003;66258;53.170;-2.240;2023-04-01T04:31:41;3837.00;3837.00;3837.00
77239;PMS7003;66258;53.170;-2.240;2023-04-01T04:34:07;3921.80;3921.80;3921.80
77239;PMS7003;66258;53.170;-2.240;2023-04-01T04:36:34;3843.40;3843.40;3843.40
77239;PMS7003;66258;53.170;-2.240;2023-04-01T04:39:01;3893.00;3893.00;3893.00
77239;PMS7003;66258;53.170;-2.240;2023-04-01T04:41:29;3915.75;3915.75;3915.75
77239;PMS7003;66258;53.170;-2.240;2023-04-01T04:43:56;3922.50;3922.50;3922.50
77239;PMS7003;66258;53.170;-2.240;2023-04-01T04:46:23;3854.20;3854.20;3854.20
77239;PMS7003;66258;53.170;-2.240;2023-04-01T04:48:50;3814.60;3814.60;3814.60
77239;PMS7003;66258;53.170;-2.240;2023-04-01T04:51:17;3915.75;3915.75;3915.75
77239;PMS7003;66258;53.170;-2.240;2023-04-01T04:53:45;3964.40;3964.40;3964.40
77239;PMS7003;66258;53.170;-2.240;2023-04-01T04:56:12;3942.75;3942.75;3942.75
77239;PMS7003;66258;53.170;-2.240;2023-04-01T04:58:40;3898.60;3898.60;3898.60
77239;PMS7003;66258;53.170;-2.240;2023-04-01T05:01:08;3739.40;3738.20;3734.60
77239;PMS7003;66258;53.170;-2.240;2023-04-01T05:03:35;3862.25;3862.25;3862.25
77239;PMS7003;66258;53.170;-2.240;2023-04-01T05:06:02;3900.20;3900.20;3900.20
77239;PMS7003;66258;53.170;-2.240;2023-04-01T05:08:30;3938.25;3938.25;3938.25
77239;PMS7003;66258;53.170;-2.240;2023-04-01T05:10:56;3953.40;3953.40;3953.40
77239;PMS7003;66258;53.170;-2.240;2023-04-01T05:13:23;3823.00;3822.60;3819.80
77239;PMS7003;66258;53.170;-2.240;2023-04-01T05:15:51;3920.20;3920.20;3920.20
77239;PMS7003;66258;53.170;-2.240;2023-04-01T05:18:18;3975.50;3975.50;3975.50
77239;PMS7003;66258;53.170;-2.240;2023-04-01T05:20:48;3938.25;3938.25;3938.25
77239;PMS7003;66258;53.170;-2.240;2023-04-01T05:23:22;3949.75;3949.75;3949.75
77239;PMS7003;66258;53.170;-2.240;2023-04-01T05:25:49;3954.75;3954.75;3954.75
77239;PMS7003;66258;53.170;-2.240;2023-04-01T05:28:16;3874.00;3874.00;3874.00
77239;PMS7003;66258;53.170;-2.240;2023-04-01T05:30:44;3911.00;3911.00;3911.00
77239;PMS7003;66258;53.170;-2.240;2023-04-01T05:33:12;3871.00;3871.00;3871.00
77239;PMS7003;66258;53.170;-2.240;2023-04-01T05:35:39;3959.00;3959.00;3959.00
77239;PMS7003;66258;53.170;-2.240;2023-04-01T05:38:07;3863.00;3863.00;3863.00
77239;PMS7003;66258;53.170;-2.240;2023-04-01T05:40:33;3985.25;3985.25;3985.25
77239;PMS7003;66258;53.170;-2.240;2023-04-01T05:43:00;3808.60;3808.00;3800.40
77239;PMS7003;66258;53.170;-2.240;2023-04-01T05:45:27;3966.25;3966.25;3966.25
77239;PMS7003;66258;53.170;-2.240;2023-04-01T05:47:54;3942.00;3942.00;3942.00
77239;PMS7003;66258;53.170;-2.240;2023-04-01T05:50:24;3904.00;3904.00;3904.00
77239;PMS7003;66258;53.170;-2.240;2023-04-01T05:52:50;3588.20;3587.20;3573.20
77239;PMS7003;66258;53.170;-2.240;2023-04-01T05:55:17;3511.60;3507.40;3502.40
77239;PMS7003;66258;53.170;-2.240;2023-04-01T05:57:44;3983.00;3983.00;3983.00
77239;PMS7003;66258;53.170;-2.240;2023-04-01T06:00:12;3039.00;3029.60;3015.00
77239;PMS7003;66258;53.170;-2.240;2023-04-01T06:02:39;3914.60;3914.60;3914.60
77239;PMS7003;66258;53.170;-2.240;2023-04-01T06:05:11;3977.75;3977.75;3977.75
77239;PMS7003;66258;53.170;-2.240;2023-04-01T06:07:42;3918.80;3918.80;3918.80
77239;PMS7003;66258;53.170;-2.240;2023-04-01T06:10:10;3949.80;3949.80;3949.80
77239;PMS7003;66258;53.170;-2.240;2023-04-01T06:12:51;3985.00;3985.00;3985.00
77239;PMS7003;66258;53.170;-2.240;2023-04-01T06:15:34;3904.00;3904.00;3904.00
77239;PMS7003;66258;53.170;-2.240;2023-04-01T06:18:29;3971.00;3971.00;3971.00
77239;PMS7003;66258;53.170;-2.240;2023-04-01T06:21:12;3866.50;3866.50;3866.50
77239;PMS7003;66258;53.170;-2.240;2023-04-01T06:23:57;3936.00;3936.00;3936.00
77239;PMS7003;66258;53.170;-2.240;2023-04-01T06:26:36;3623.75;3621.50;3614.75
77239;PMS7003;66258;53.170;-2.240;2023-04-01T06:29:18;3961.75;3961.75;3961.75
77239;PMS7003;66258;53.170;-2.240;2023-04-01T06:32:01;3920.40;3920.40;3920.40
77239;PMS7003;66258;53.170;-2.240;2023-04-01T06:34:47;3966.25;3966.25;3966.25
77239;PMS7003;66258;53.170;-2.240;2023-04-01T06:37:44;3900.00;3900.00;3900.00
77239;PMS7003;66258;53.170;-2.240;2023-04-01T06:40:24;3866.75;3866.75;3866.75
77239;PMS7003;66258;53.170;-2.240;2023-04-01T06:43:09;3916.80;3916.80;3916.80
77239;PMS7003;66258;53.170;-2.240;2023-04-01T06:45:46;3875.60;3875.60;3875.60
77239;PMS7003;66258;53.170;-2.240;2023-04-01T06:51:22;3886.60;3886.60;3886.60
77239;PMS7003;66258;53.170;-2.240;2023-04-01T06:53:58;3145.75;3145.75;3123.25
77239;PMS7003;66258;53.170;-2.240;2023-04-01T06:56:32;3921.80;3921.80;3921.80
77239;PMS7003;66258;53.170;-2.240;2023-04-01T06:59:01;3532.20;3531.80;3515.60
77239;PMS7003;66258;53.170;-2.240;2023-04-01T07:01:32;3439.20;3439.20;3429.20
77239;PMS7003;66258;53.170;-2.240;2023-04-01T07:04:05;3323.25;3319.50;3306.50
77239;PMS7003;66258;53.170;-2.240;2023-04-01T07:06:36;3741.25;3741.25;3736.75
77239;PMS7003;66258;53.170;-2.240;2023-04-01T07:09:10;3924.50;3924.50;3924.50
77239;PMS7003;66258;53.170;-2.240;2023-04-01T07:11:43;3044.00;3044.00;3026.00
77239;PMS7003;66258;53.170;-2.240;2023-04-01T07:14:16;3868.50;3868.50;3868.50
77239;PMS7003;66258;53.170;-2.240;2023-04-01T07:16:47;3799.50;3799.50;3798.25
77239;PMS7003;66258;53.170;-2.240;2023-04-01T07:19:18;3783.75;3783.75;3782.50
77239;PMS7003;66258;53.170;-2.240;2023-04-01T07:21:50;3736.25;3736.25;3734.50
77239;PMS7003;66258;53.170;-2.240;2023-04-01T07:24:23;3872.75;3872.75;3872.75
77239;PMS7003;66258;53.170;-2.240;2023-04-01T07:26:55;3888.50;3888.50;3888.50
77239;PMS7003;66258;53.170;-2.240;2023-04-01T07:29:23;3799.00;3799.00;3799.00
77239;PMS7003;66258;53.170;-2.240;2023-04-01T07:32:06;3557.50;3552.50;3542.50
77239;PMS7003;66258;53.170;-2.240;2023-04-01T07:34:41;3823.00;3823.00;3823.00
77239;PMS7003;66258;53.170;-2.240;2023-04-01T07:37:17;3356.75;3354.00;3334.25
77239;PMS7003;66258;53.170;-2.240;2023-04-01T07:39:51;3500.00;3499.00;3476.00
77239;PMS7003;66258;53.170;-2.240;2023-04-01T07:42:30;3532.00;3530.50;3516.50
77239;PMS7003;66258;53.170;-2.240;2023-04-01T07:45:09;3913.25;3913.25;3913.25
77239;PMS7003;66258;53.170;-2.240;2023-04-01T07:47:51;3258.25;3258.25;3250.25
77239;PMS7003;66258;53.170;-2.240;2023-04-01T07:50:27;3743.50;3743.50;3742.75
77239;PMS7003;66258;53.170;-2.240;2023-04-01T07:52:59;3866.75;3866.75;3866.75
77239;PMS7003;66258;53.170;-2.240;2023-04-01T07:55:35;2848.25;2837.00;2812.75
77239;PMS7003;66258;53.170;-2.240;2023-04-01T07:58:12;3202.75;3200.25;3166.50
77239;PMS7003;66258;53.170;-2.240;2023-04-01T08:00:51;2951.60;2950.40;2917.00
77239;PMS7003;66258;53.170;-2.240;2023-04-01T08:03:31;2724.80;2711.00;2697.40
77239;PMS7003;66258;53.170;-2.240;2023-04-01T08:06:06;3849.00;3849.00;3849.00
77239;PMS7003;66258;53.170;-2.240;2023-04-01T08:08:43;3537.40;3537.40;3527.40
77239;PMS7003;66258;53.170;-2.240;2023-04-01T08:11:22;1366.80;1363.40;1313.20
77239;PMS7003;66258;53.170;-2.240;2023-04-01T08:14:00;171.60;171.00;136.40
77239;PMS7003;66258;53.170;-2.240;2023-04-01T08:16:35;99.00;99.00;66.80
77239;PMS7003;66258;53.170;-2.240;2023-04-01T08:19:09;312.80;309.60;280.40
77239;PMS7003;66258;53.170;-2.240;2023-04-01T08:21:47;98.00;98.00;64.50
77239;PMS7003;66258;53.170;-2.240;2023-04-01T08:24:22;671.80;665.60;647.00
77239;PMS7003;66258;53.170;-2.240;2023-04-01T08:27:11;759.00;758.40;736.40
77239;PMS7003;66258;53.170;-2.240;2023-04-01T08:29:46;828.20;819.40;796.80
77239;PMS7003;66258;53.170;-2.240;2023-04-01T08:32:18;93.20;93.00;67.60
77239;PMS7003;66258;53.170;-2.240;2023-04-01T08:34:54;84.25;77.00;73.75
77239;PMS7003;66258;53.170;-2.240;2023-04-01T08:37:35;82.75;75.25;71.00
77239;PMS7003;66258;53.170;-2.240;2023-04-01T08:40:11;83.75;76.75;75.50
77239;PMS7003;66258;53.170;-2.240;2023-04-01T08:43:01;220.00;212.80;209.00
77239;PMS7003;66258;53.170;-2.240;2023-04-01T08:45:45;436.80;435.00;429.80
77239;PMS7003;66258;53.170;-2.240;2023-04-01T08:48:27;438.40;435.20;417.60
77239;PMS7003;66258;53.170;-2.240;2023-04-01T08:51:15;289.60;285.20;280.20
77239;PMS7003;66258;53.170;-2.240;2023-04-01T08:54:03;81.20;73.40;72.00
77239;PMS7003;66258;53.170;-2.240;2023-04-01T08:56:40;79.60;71.00;61.60
77239;PMS7003;66258;53.170;-2.240;2023-04-01T08:59:21;461.00;461.00;421.80
77239;PMS7003;66258;53.170;-2.240;2023-04-01T09:08:00;60.50;51.00;42.00
77239;PMS7003;66258;53.170;-2.240;2023-04-01T09:10:52;34.50;33.25;27.00
77239;PMS7003;66258;53.170;-2.240;2023-04-01T09:13:32;9.00;9.00;8.00
77239;PMS7003;66258;53.170;-2.240;2023-04-01T09:22:10;4.00;4.00;3.00
77239;PMS7003;66258;53.170;-2.240;2023-04-01T09:25:02;3.75;3.75;3.25
77239;PMS7003;66258;53.170;-2.240;2023-04-01T09:27:43;1.00;1.00;0.00
77239;PMS7003;66258;53.170;-2.240;2023-04-01T09:30:31;2.25;1.00;0.25
77239;PMS7003;66258;53.170;-2.240;2023-04-01T09:36:16;2.00;2.00;1.00
77239;PMS7003;66258;53.170;-2.240;2023-04-01T09:38:55;4.25;4.25;2.50
77239;PMS7003;66258;53.170;-2.240;2023-04-01T09:41:27;12.75;9.75;7.50
77239;PMS7003;66258;53.170;-2.240;2023-04-01T09:44:08;19.00;15.00;12.75
77239;PMS7003;66258;53.170;-2.240;2023-04-01T09:46:51;20.75;17.75;12.50
77239;PMS7003;66258;53.170;-2.240;2023-04-01T09:49:43;54.25;37.00;26.25
77239;PMS7003;66258;53.170;-2.240;2023-04-01T09:52:29;47.25;36.50;24.50
77239;PMS7003;66258;53.170;-2.240;2023-04-01T09:55:11;34.00;33.00;27.00
77239;PMS7003;66258;53.170;-2.240;2023-04-01T09:58:00;65.00;54.00;48.75
77239;PMS7003;66258;53.170;-2.240;2023-04-01T10:01:03;4.25;4.25;3.00
77239;PMS7003;66258;53.170;-2.240;2023-04-01T10:07:21;1.75;1.75;1.25
77239;PMS7003;66258;53.170;-2.240;2023-04-01T10:13:24;17.25;17.25;15.75
77239;PMS7003;66258;53.170;-2.240;2023-04-01T10:19:31;0.00;0.00;0.00
77239;PMS7003;66258;53.170;-2.240;2023-04-01T10:22:36;6.75;6.75;5.50
77239;PMS7003;66258;53.170;-2.240;2023-04-01T10:25:29;47.75;41.50;34.00
77239;PMS7003;66258;53.170;-2.240;2023-04-01T10:28:16;2.00;2.00;1.00
77239;PMS7003;66258;53.170;-2.240;2023-04-01T10:37:09;1.25;1.25;1.00
77239;PMS7003;66258;53.170;-2.240;2023-04-01T10:39:58;2.00;2.00;1.25
77239;PMS7003;66258;53.170;-2.240;2023-04-01T10:45:59;1.00;1.00;0.25
77239;PMS7003;66258;53.170;-2.240;2023-04-01T10:52:09;3.50;3.50;1.50
77239;PMS7003;66258;53.170;-2.240;2023-04-01T10:55:01;3.00;3.00;1.00
77239;PMS7003;66258;53.170;-2.240;2023-04-01T10:57:52;1.75;1.75;0.25
77239;PMS7003;66258;53.170;-2.240;2023-04-01T11:00:46;2.00;1.00;0.00
77239;PMS7003;66258;53.170;-2.240;2023-04-01T11:03:41;2.75;2.00;1.00
77239;PMS7003;66258;53.170;-2.240;2023-04-01T11:06:35;1.00;1.00;0.00
77239;PMS7003;66258;53.170;-2.240;2023-04-01T11:15:47;2.00;2.00;0.75
77239;PMS7003;66258;53.170;-2.240;2023-04-01T11:21:49;1.75;1.75;0.00
77239;PMS7003;66258;53.170;-2.240;2023-04-01T11:24:37;1.00;1.00;1.00
77239;PMS7003;66258;53.170;-2.240;2023-04-01T11:27:44;15.00;11.75;10.25
77239;PMS7003;66258;53.170;-2.240;2023-04-01T11:33:17;4.00;4.00;3.67
77239;PMS7003;66258;53.170;-2.240;2023-04-01T11:35:55;5.50;5.50;5.50
77239;PMS7003;66258;53.170;-2.240;2023-04-01T11:41:30;10.25;8.25;7.75
77239;PMS7003;66258;53.170;-2.240;2023-04-01T11:44:11;32.00;30.00;25.00
77239;PMS7003;66258;53.170;-2.240;2023-04-01T11:46:46;2.00;2.00;1.00
77239;PMS7003;66258;53.170;-2.240;2023-04-01T11:49:31;1.50;1.50;0.00
77239;PMS7003;66258;53.170;-2.240;2023-04-01T11:52:14;192.75;191.25;189.25
77239;PMS7003;66258;53.170;-2.240;2023-04-01T11:54:55;2.00;2.00;1.67
77239;PMS7003;66258;53.170;-2.240;2023-04-01T12:00:40;13.00;12.25;9.25
77239;PMS7003;66258;53.170;-2.240;2023-04-01T12:03:29;2.33;2.33;1.33
77239;PMS7003;66258;53.170;-2.240;2023-04-01T12:06:11;42.50;31.75;23.25
77239;PMS7003;66258;53.170;-2.240;2023-04-01T12:08:46;1.67;1.67;1.00
77239;PMS7003;66258;53.170;-2.240;2023-04-01T12:11:22;0.33;0.33;0.33
77239;PMS7003;66258;53.170;-2.240;2023-04-01T12:13:56;0.33;0.33;0.00
77239;PMS7003;66258;53.170;-2.240;2023-04-01T12:16:35;1.00;1.00;0.00
77239;PMS7003;66258;53.170;-2.240;2023-04-01T12:19:24;11.25;8.75;6.50
77239;PMS7003;66258;53.170;-2.240;2023-04-01T12:22:03;3.75;3.75;2.75
77239;PMS7003;66258;53.170;-2.240;2023-04-01T12:24:46;12.00;8.00;5.50
77239;PMS7003;66258;53.170;-2.240;2023-04-01T12:27:29;12.50;11.00;6.75
77239;PMS7003;66258;53.170;-2.240;2023-04-01T12:30:14;0.50;0.50;0.25
77239;PMS7003;66258;53.170;-2.240;2023-04-01T12:33:14;0.75;0.75;0.75
77239;PMS7003;66258;53.170;-2.240;2023-04-01T12:35:55;0.33;0.33;0.33
77239;PMS7003;66258;53.170;-2.240;2023-04-01T12:38:35;2.25;2.25;1.00
77239;PMS7003;66258;53.170;-2.240;2023-04-01T12:41:09;5.33;5.33;3.33
77239;PMS7003;66258;53.170;-2.240;2023-04-01T12:46:50;0.00;0.00;0.00
77239;PMS7003;66258;53.170;-2.240;2023-04-01T12:49:36;2.00;2.00;0.00
77239;PMS7003;66258;53.170;-2.240;2023-04-01T12:52:15;1.00;1.00;0.00
77239;PMS7003;66258;53.170;-2.240;2023-04-01T12:54:59;1.00;1.00;0.00
77239;PMS7003;66258;53.170;-2.240;2023-04-01T12:58:00;1.00;1.00;1.00
77239;PMS7003;66258;53.170;-2.240;2023-04-01T13:00:46;5.00;5.00;3.00
77239;PMS7003;66258;53.170;-2.240;2023-04-01T13:03:29;5.00;3.00;2.00
77239;PMS7003;66258;53.170;-2.240;2023-04-01T13:09:19;1.33;1.33;0.00
77239;PMS7003;66258;53.170;-2.240;2023-04-01T13:12:00;5.00;5.00;4.00
77239;PMS7003;66258;53.170;-2.240;2023-04-01T13:17:48;0.50;0.50;0.00
77239;PMS7003;66258;53.170;-2.240;2023-04-01T13:20:22;2.00;2.00;0.50
77239;PMS7003;66258;53.170;-2.240;2023-04-01T13:23:04;2.00;2.00;1.00
77239;PMS7003;66258;53.170;-2.240;2023-04-01T13:25:42;4.00;4.00;4.00
77239;PMS7003;66258;53.170;-2.240;2023-04-01T13:28:33;8.00;6.00;5.00
77239;PMS7003;66258;53.170;-2.240;2023-04-01T13:31:05;3.33;3.33;3.00
77239;PMS7003;66258;53.170;-2.240;2023-04-01T13:33:42;1.00;1.00;0.25
77239;PMS7003;66258;53.170;-2.240;2023-04-01T13:36:18;1.33;1.33;0.67
77239;PMS7003;66258;53.170;-2.240;2023-04-01T13:38:59;1.00;1.00;1.00
77239;PMS7003;66258;53.170;-2.240;2023-04-01T13:41:42;1.50;1.50;0.50
77239;PMS7003;66258;53.170;-2.240;2023-04-01T13:44:24;1.75;1.75;0.75
77239;PMS7003;66258;53.170;-2.240;2023-04-01T13:47:04;22.50;17.00;13.75
77239;PMS7003;66258;53.170;-2.240;2023-04-01T13:52:55;2.67;2.67;1.67
77239;PMS7003;66258;53.170;-2.240;2023-04-01T14:01:20;1.50;1.50;0.75
77239;PMS7003;66258;53.170;-2.240;2023-04-01T14:06:54;5.00;3.00;3.00
77239;PMS7003;66258;53.170;-2.240;2023-04-01T14:09:42;0.00;0.00;0.00
77239;PMS7003;66258;53.170;-2.240;2023-04-01T14:12:23;1.00;1.00;0.00
77239;PMS7003;66258;53.170;-2.240;2023-04-01T14:15:04;0.75;0.75;0.00
77239;PMS7003;66258;53.170;-2.240;2023-04-01T14:17:46;1.00;1.00;1.00
77239;PMS7003;66258;53.170;-2.240;2023-04-01T14:20:35;2.00;2.00;1.00
77239;PMS7003;66258;53.170;-2.240;2023-04-01T14:23:22;4.67;4.67;3.00
77239;PMS7003;66258;53.170;-2.240;2023-04-01T14:26:05;2.67;2.67;2.33
77239;PMS7003;66258;53.170;-2.240;2023-04-01T14:28:44;3.00;3.00;2.25
77239;PMS7003;66258;53.170;-2.240;2023-04-01T14:34:21;8.00;8.00;7.75
77239;PMS7003;66258;53.170;-2.240;2023-04-01T14:39:49;0.25;0.25;0.00
77239;PMS7003;66258;53.170;-2.240;2023-04-01T14:42:41;1.33;1.33;1.33
77239;PMS7003;66258;53.170;-2.240;2023-04-01T14:48:15;3.67;3.67;1.67
77239;PMS7003;66258;53.170;-2.240;2023-04-01T14:50:49;4.67;4.67;4.00
77239;PMS7003;66258;53.170;-2.240;2023-04-01T14:53:23;10.00;10.00;7.75
77239;PMS7003;66258;53.170;-2.240;2023-04-01T14:55:55;2.33;2.33;1.00
77239;PMS7003;66258;53.170;-2.240;2023-04-01T14:58:23;2.00;1.75;1.00
77239;PMS7003;66258;53.170;-2.240;2023-04-01T15:01:00;1.00;1.00;0.00
77239;PMS7003;66258;53.170;-2.240;2023-04-01T15:03:40;2.00;2.00;1.33
77239;PMS7003;66258;53.170;-2.240;2023-04-01T15:06:27;1.00;1.00;0.67
77239;PMS7003;66258;53.170;-2.240;2023-04-01T15:09:12;5.50;5.50;3.50
77239;PMS7003;66258;53.170;-2.240;2023-04-01T15:11:50;2.67;1.00;1.00
77239;PMS7003;66258;53.170;-2.240;2023-04-01T15:14:39;1.00;1.00;0.00
77239;PMS7003;66258;53.170;-2.240;2023-04-01T15:20:25;12.25;10.00;5.50
77239;PMS7003;66258;53.170;-2.240;2023-04-01T15:23:09;1.00;1.00;0.00
77239;PMS7003;66258;53.170;-2.240;2023-04-01T15:28:45;2.50;1.25;1.00